East Muncy, Pennsylvania
Current Conditions -  °F | °C
As of 2:54 PM on Friday 24 Oct 2014 (Local Time) from KIPT Reporting Station
Clear Clear  
Wind Chill: 71°   Ceiling: Unl
Heat Index: 71°   Visibility: 10mi
Dew Point: 30°   Wind: 15mph
Humidity: 22%   Direction: 310°NW
Pressure: 29.85"   Gusts: 21mph
Location:  41.225°N, 76.7388°W
Report Text: KIPT 241854Z 31013G18KT 10SM CLR 22/M01 A2985 RMK AO2 SLP107 T02171011
Loading
Personal Weather Stations






























Interactive Weather Map
Tropical Storm Tracking
New forecast layout! Learn more

10-Day Weather Forecast

Advertisements
Track Severe Weather on mobile